sensor_id;sensor_type;location;lat;lon;timestamp;P1;durP1;ratioP1;P2;durP2;ratioP2
36321;SDS011;23564;48.290;11.460;2023-04-24T00:01:13;1.92;;;1.30;;
36321;SDS011;23564;48.290;11.460;2023-04-24T00:03:40;2.05;;;1.30;;
36321;SDS011;23564;48.290;11.460;2023-04-24T00:06:06;3.42;;;1.60;;
36321;SDS011;23564;48.290;11.460;2023-04-24T00:08:33;2.03;;;1.48;;
36321;SDS011;23564;48.290;11.460;2023-04-24T00:11:01;4.78;;;1.40;;
36321;SDS011;23564;48.290;11.460;2023-04-24T00:13:28;3.15;;;1.85;;
36321;SDS011;23564;48.290;11.460;2023-04-24T00:15:54;1.55;;;1.20;;
36321;SDS011;23564;48.290;11.460;2023-04-24T00:18:20;4.72;;;1.88;;
36321;SDS011;23564;48.290;11.460;2023-04-24T00:20:45;2.20;;;1.60;;
36321;SDS011;23564;48.290;11.460;2023-04-24T00:23:11;2.00;;;1.23;;
36321;SDS011;23564;48.290;11.460;2023-04-24T00:25:38;10.18;;;1.60;;
36321;SDS011;23564;48.290;11.460;2023-04-24T00:28:03;3.65;;;1.27;;
36321;SDS011;23564;48.290;11.460;2023-04-24T00:30:29;2.45;;;1.60;;
36321;SDS011;23564;48.290;11.460;2023-04-24T00:32:55;3.22;;;1.35;;
36321;SDS011;23564;48.290;11.460;2023-04-24T00:35:20;2.17;;;1.33;;
36321;SDS011;23564;48.290;11.460;2023-04-24T00:37:46;2.03;;;1.30;;
36321;SDS011;23564;48.290;11.460;2023-04-24T00:40:11;3.35;;;1.27;;
36321;SDS011;23564;48.290;11.460;2023-04-24T00:42:37;2.13;;;1.33;;
36321;SDS011;23564;48.290;11.460;2023-04-24T00:45:05;4.45;;;1.45;;
36321;SDS011;23564;48.290;11.460;2023-04-24T00:47:31;4.80;;;1.42;;
36321;SDS011;23564;48.290;11.460;2023-04-24T00:49:58;6.93;;;1.67;;
36321;SDS011;23564;48.290;11.460;2023-04-24T00:52:25;2.15;;;1.48;;
36321;SDS011;23564;48.290;11.460;2023-04-24T00:54:51;4.63;;;1.27;;
36321;SDS011;23564;48.290;11.460;2023-04-24T00:57:16;4.38;;;1.70;;
36321;SDS011;23564;48.290;11.460;2023-04-24T00:59:42;4.10;;;1.50;;
36321;SDS011;23564;48.290;11.460;2023-04-24T01:02:09;2.42;;;1.30;;
36321;SDS011;23564;48.290;11.460;2023-04-24T01:04:36;2.05;;;0.77;;
36321;SDS011;23564;48.290;11.460;2023-04-24T01:07:01;2.15;;;0.90;;
36321;SDS011;23564;48.290;11.460;2023-04-24T01:09:28;1.40;;;0.90;;
36321;SDS011;23564;48.290;11.460;2023-04-24T01:11:54;5.30;;;1.20;;
36321;SDS011;23564;48.290;11.460;2023-04-24T01:14:20;2.58;;;1.10;;
36321;SDS011;23564;48.290;11.460;2023-04-24T01:16:45;1.75;;;1.33;;
36321;SDS011;23564;48.290;11.460;2023-04-24T01:19:11;1.25;;;1.00;;
36321;SDS011;23564;48.290;11.460;2023-04-24T01:21:39;4.13;;;1.10;;
36321;SDS011;23564;48.290;11.460;2023-04-24T01:24:06;4.05;;;1.20;;
36321;SDS011;23564;48.290;11.460;2023-04-24T01:26:32;2.33;;;0.95;;
36321;SDS011;23564;48.290;11.460;2023-04-24T01:28:58;2.03;;;1.00;;
36321;SDS011;23564;48.290;11.460;2023-04-24T01:31:24;7.03;;;1.00;;
36321;SDS011;23564;48.290;11.460;2023-04-24T01:33:50;1.42;;;0.95;;
36321;SDS011;23564;48.290;11.460;2023-04-24T01:36:17;1.60;;;1.05;;
36321;SDS011;23564;48.290;11.460;2023-04-24T01:38:43;1.55;;;0.95;;
36321;SDS011;23564;48.290;11.460;2023-04-24T01:41:09;1.95;;;0.90;;
36321;SDS011;23564;48.290;11.460;2023-04-24T01:43:35;1.95;;;0.80;;
36321;SDS011;23564;48.290;11.460;2023-04-24T01:46:01;2.22;;;0.80;;
36321;SDS011;23564;48.290;11.460;2023-04-24T01:48:27;1.17;;;0.70;;
36321;SDS011;23564;48.290;11.460;2023-04-24T01:50:52;2.08;;;0.88;;
36321;SDS011;23564;48.290;11.460;2023-04-24T01:53:18;1.13;;;0.52;;
36321;SDS011;23564;48.290;11.460;2023-04-24T01:55:44;3.60;;;0.98;;
36321;SDS011;23564;48.290;11.460;2023-04-24T01:58:10;2.95;;;1.15;;
36321;SDS011;23564;48.290;11.460;2023-04-24T02:00:36;2.60;;;0.80;;
36321;SDS011;23564;48.290;11.460;2023-04-24T02:03:01;3.95;;;0.88;;
36321;SDS011;23564;48.290;11.460;2023-04-24T02:05:27;0.73;;;0.65;;
36321;SDS011;23564;48.290;11.460;2023-04-24T02:07:53;1.40;;;0.60;;
36321;SDS011;23564;48.290;11.460;2023-04-24T02:10:19;2.67;;;0.68;;
36321;SDS011;23564;48.290;11.460;2023-04-24T02:12:44;1.30;;;0.65;;
36321;SDS011;23564;48.290;11.460;2023-04-24T02:15:10;2.65;;;0.75;;
36321;SDS011;23564;48.290;11.460;2023-04-24T02:17:37;0.60;;;0.60;;
36321;SDS011;23564;48.290;11.460;2023-04-24T02:20:03;2.47;;;0.70;;
36321;SDS011;23564;48.290;11.460;2023-04-24T02:22:29;1.55;;;0.80;;
36321;SDS011;23564;48.290;11.460;2023-04-24T02:24:55;1.63;;;0.95;;
36321;SDS011;23564;48.290;11.460;2023-04-24T02:27:21;1.33;;;0.82;;
36321;SDS011;23564;48.290;11.460;2023-04-24T02:29:46;1.90;;;0.80;;
36321;SDS011;23564;48.290;11.460;2023-04-24T02:32:12;2.40;;;0.90;;
36321;SDS011;23564;48.290;11.460;2023-04-24T02:34:37;2.60;;;0.80;;
36321;SDS011;23564;48.290;11.460;2023-04-24T02:37:03;1.20;;;0.70;;
36321;SDS011;23564;48.290;11.460;2023-04-24T02:39:29;5.03;;;0.85;;
36321;SDS011;23564;48.290;11.460;2023-04-24T02:41:54;1.05;;;0.88;;
36321;SDS011;23564;48.290;11.460;2023-04-24T02:44:20;1.20;;;0.70;;
36321;SDS011;23564;48.290;11.460;2023-04-24T02:46:46;2.15;;;0.88;;
36321;SDS011;23564;48.290;11.460;2023-04-24T02:49:12;7.13;;;0.70;;
36321;SDS011;23564;48.290;11.460;2023-04-24T02:51:38;1.02;;;0.70;;
36321;SDS011;23564;48.290;11.460;2023-04-24T02:54:05;2.60;;;0.63;;
36321;SDS011;23564;48.290;11.460;2023-04-24T02:56:32;6.40;;;0.80;;
36321;SDS011;23564;48.290;11.460;2023-04-24T02:58:58;1.73;;;1.00;;
36321;SDS011;23564;48.290;11.460;2023-04-24T03:01:24;3.63;;;0.98;;
36321;SDS011;23564;48.290;11.460;2023-04-24T03:03:50;1.55;;;0.80;;
36321;SDS011;23564;48.290;11.460;2023-04-24T03:06:15;3.58;;;0.82;;
36321;SDS011;23564;48.290;11.460;2023-04-24T03:08:41;3.95;;;0.80;;
36321;SDS011;23564;48.290;11.460;2023-04-24T03:11:06;1.25;;;0.70;;
36321;SDS011;23564;48.290;11.460;2023-04-24T03:13:32;3.22;;;0.85;;
36321;SDS011;23564;48.290;11.460;2023-04-24T03:15:57;2.45;;;0.60;;
36321;SDS011;23564;48.290;11.460;2023-04-24T03:18:23;2.75;;;0.70;;
36321;SDS011;23564;48.290;11.460;2023-04-24T03:20:49;7.55;;;0.93;;
36321;SDS011;23564;48.290;11.460;2023-04-24T03:23:15;1.67;;;0.80;;
36321;SDS011;23564;48.290;11.460;2023-04-24T03:25:40;1.73;;;0.82;;
36321;SDS011;23564;48.290;11.460;2023-04-24T03:28:07;8.13;;;1.10;;
36321;SDS011;23564;48.290;11.460;2023-04-24T03:30:33;1.13;;;0.90;;
36321;SDS011;23564;48.290;11.460;2023-04-24T03:32:59;3.58;;;1.10;;
36321;SDS011;23564;48.290;11.460;2023-04-24T03:35:24;2.72;;;1.13;;
36321;SDS011;23564;48.290;11.460;2023-04-24T03:37:50;3.40;;;0.82;;
36321;SDS011;23564;48.290;11.460;2023-04-24T03:40:15;5.00;;;1.00;;
36321;SDS011;23564;48.290;11.460;2023-04-24T03:42:41;3.63;;;0.80;;
36321;SDS011;23564;48.290;11.460;2023-04-24T03:45:07;2.13;;;0.93;;
36321;SDS011;23564;48.290;11.460;2023-04-24T03:47:33;1.63;;;1.08;;
36321;SDS011;23564;48.290;11.460;2023-04-24T03:49:58;5.38;;;1.02;;
36321;SDS011;23564;48.290;11.460;2023-04-24T03:52:24;2.20;;;1.05;;
36321;SDS011;23564;48.290;11.460;2023-04-24T03:54:50;1.58;;;1.05;;
36321;SDS011;23564;48.290;11.460;2023-04-24T03:57:15;4.80;;;0.82;;
36321;SDS011;23564;48.290;11.460;2023-04-24T03:59:41;2.88;;;1.05;;
36321;SDS011;23564;48.290;11.460;2023-04-24T04:02:06;1.50;;;0.93;;
36321;SDS011;23564;48.290;11.460;2023-04-24T04:04:32;2.08;;;0.80;;
36321;SDS011;23564;48.290;11.460;2023-04-24T04:06:58;4.13;;;1.38;;
36321;SDS011;23564;48.290;11.460;2023-04-24T04:09:26;3.65;;;1.05;;
36321;SDS011;23564;48.290;11.460;2023-04-24T04:11:52;1.77;;;1.00;;
36321;SDS011;23564;48.290;11.460;2023-04-24T04:14:17;2.05;;;0.70;;
36321;SDS011;23564;48.290;11.460;2023-04-24T04:16:43;2.83;;;1.00;;
36321;SDS011;23564;48.290;11.460;2023-04-24T04:19:08;1.17;;;0.90;;
36321;SDS011;23564;48.290;11.460;2023-04-24T04:21:34;3.60;;;0.93;;
36321;SDS011;23564;48.290;11.460;2023-04-24T04:24:00;1.20;;;0.80;;
36321;SDS011;23564;48.290;11.460;2023-04-24T04:26:25;2.92;;;0.80;;
36321;SDS011;23564;48.290;11.460;2023-04-24T04:28:51;2.60;;;0.65;;
36321;SDS011;23564;48.290;11.460;2023-04-24T04:31:18;3.67;;;0.80;;
36321;SDS011;23564;48.290;11.460;2023-04-24T04:33:48;2.50;;;0.90;;
36321;SDS011;23564;48.290;11.460;2023-04-24T04:36:13;3.58;;;0.80;;
36321;SDS011;23564;48.290;11.460;2023-04-24T04:38:39;1.65;;;0.88;;
36321;SDS011;23564;48.290;11.460;2023-04-24T04:41:05;0.77;;;0.65;;
36321;SDS011;23564;48.290;11.460;2023-04-24T04:43:32;2.97;;;0.98;;
36321;SDS011;23564;48.290;11.460;2023-04-24T04:45:59;4.80;;;1.45;;
36321;SDS011;23564;48.290;11.460;2023-04-24T04:48:25;3.75;;;0.75;;
36321;SDS011;23564;48.290;11.460;2023-04-24T04:50:52;3.75;;;1.23;;
36321;SDS011;23564;48.290;11.460;2023-04-24T04:53:17;5.13;;;0.85;;
36321;SDS011;23564;48.290;11.460;2023-04-24T04:55:43;1.63;;;0.93;;
36321;SDS011;23564;48.290;11.460;2023-04-24T04:58:09;2.65;;;1.00;;
36321;SDS011;23564;48.290;11.460;2023-04-24T05:00:34;4.70;;;1.00;;
36321;SDS011;23564;48.290;11.460;2023-04-24T05:03:02;2.33;;;0.75;;
36321;SDS011;23564;48.290;11.460;2023-04-24T05:05:28;3.97;;;0.80;;
36321;SDS011;23564;48.290;11.460;2023-04-24T05:07:54;2.55;;;0.77;;
36321;SDS011;23564;48.290;11.460;2023-04-24T05:10:20;1.88;;;0.90;;
36321;SDS011;23564;48.290;11.460;2023-04-24T05:12:45;3.83;;;0.80;;
36321;SDS011;23564;48.290;11.460;2023-04-24T05:15:11;0.90;;;0.63;;
36321;SDS011;23564;48.290;11.460;2023-04-24T05:17:36;1.65;;;1.00;;
36321;SDS011;23564;48.290;11.460;2023-04-24T05:20:03;1.60;;;0.77;;
36321;SDS011;23564;48.290;11.460;2023-04-24T05:22:30;2.00;;;0.80;;
36321;SDS011;23564;48.290;11.460;2023-04-24T05:24:56;1.30;;;0.90;;
36321;SDS011;23564;48.290;11.460;2023-04-24T05:27:22;1.98;;;1.00;;
36321;SDS011;23564;48.290;11.460;2023-04-24T05:29:47;3.25;;;1.20;;
36321;SDS011;23564;48.290;11.460;2023-04-24T05:32:13;1.65;;;0.70;;
36321;SDS011;23564;48.290;11.460;2023-04-24T05:34:38;3.15;;;0.93;;
36321;SDS011;23564;48.290;11.460;2023-04-24T05:37:04;1.20;;;0.75;;
36321;SDS011;23564;48.290;11.460;2023-04-24T05:39:33;3.00;;;0.88;;
36321;SDS011;23564;48.290;11.460;2023-04-24T05:42:00;1.13;;;0.55;;
36321;SDS011;23564;48.290;11.460;2023-04-24T05:44:26;3.33;;;0.80;;
36321;SDS011;23564;48.290;11.460;2023-04-24T05:46:51;0.68;;;0.50;;
36321;SDS011;23564;48.290;11.460;2023-04-24T05:49:17;2.17;;;0.80;;
36321;SDS011;23564;48.290;11.460;2023-04-24T05:51:43;0.75;;;0.57;;
36321;SDS011;23564;48.290;11.460;2023-04-24T05:54:08;3.88;;;0.80;;
36321;SDS011;23564;48.290;11.460;2023-04-24T05:56:35;0.47;;;0.47;;
36321;SDS011;23564;48.290;11.460;2023-04-24T05:59:01;0.40;;;0.40;;
36321;SDS011;23564;48.290;11.460;2023-04-24T06:01:26;0.88;;;0.80;;
36321;SDS011;23564;48.290;11.460;2023-04-24T06:03:52;2.22;;;0.73;;
36321;SDS011;23564;48.290;11.460;2023-04-24T06:06:18;2.67;;;0.75;;
36321;SDS011;23564;48.290;11.460;2023-04-24T06:08:44;0.82;;;0.50;;
36321;SDS011;23564;48.290;11.460;2023-04-24T06:11:10;0.77;;;0.52;;
36321;SDS011;23564;48.290;11.460;2023-04-24T06:13:36;1.40;;;0.47;;
36321;SDS011;23564;48.290;11.460;2023-04-24T06:16:01;1.65;;;0.60;;
36321;SDS011;23564;48.290;11.460;2023-04-24T06:18:27;1.02;;;0.40;;
36321;SDS011;23564;48.290;11.460;2023-04-24T06:20:52;0.73;;;0.30;;
36321;SDS011;23564;48.290;11.460;2023-04-24T06:23:18;4.60;;;0.70;;
36321;SDS011;23564;48.290;11.460;2023-04-24T06:25:43;2.35;;;0.45;;
36321;SDS011;23564;48.290;11.460;2023-04-24T06:28:09;0.40;;;0.40;;
36321;SDS011;23564;48.290;11.460;2023-04-24T06:30:34;0.63;;;0.45;;
36321;SDS011;23564;48.290;11.460;2023-04-24T06:33:00;2.10;;;0.65;;
36321;SDS011;23564;48.290;11.460;2023-04-24T06:35:26;0.80;;;0.30;;
36321;SDS011;23564;48.290;11.460;2023-04-24T06:37:51;0.95;;;0.50;;
36321;SDS011;23564;48.290;11.460;2023-04-24T06:40:17;0.65;;;0.47;;
36321;SDS011;23564;48.290;11.460;2023-04-24T06:42:43;0.70;;;0.52;;
36321;SDS011;23564;48.290;11.460;2023-04-24T06:45:09;1.95;;;0.40;;
36321;SDS011;23564;48.290;11.460;2023-04-24T06:47:35;2.13;;;0.65;;
36321;SDS011;23564;48.290;11.460;2023-04-24T06:50:01;0.80;;;0.43;;
36321;SDS011;23564;48.290;11.460;2023-04-24T06:52:26;1.25;;;0.40;;
36321;SDS011;23564;48.290;11.460;2023-04-24T06:54:52;1.30;;;0.40;;
36321;SDS011;23564;48.290;11.460;2023-04-24T06:57:24;1.05;;;0.50;;
36321;SDS011;23564;48.290;11.460;2023-04-24T06:59:50;4.13;;;0.50;;
36321;SDS011;23564;48.290;11.460;2023-04-24T07:02:15;0.30;;;0.30;;
36321;SDS011;23564;48.290;11.460;2023-04-24T07:04:41;0.55;;;0.32;;
36321;SDS011;23564;48.290;11.460;2023-04-24T07:07:06;0.90;;;0.50;;
36321;SDS011;23564;48.290;11.460;2023-04-24T07:09:34;1.08;;;0.40;;
36321;SDS011;23564;48.290;11.460;2023-04-24T07:12:03;2.67;;;0.35;;
36321;SDS011;23564;48.290;11.460;2023-04-24T07:14:29;0.68;;;0.40;;
36321;SDS011;23564;48.290;11.460;2023-04-24T07:16:54;0.60;;;0.40;;
36321;SDS011;23564;48.290;11.460;2023-04-24T07:19:22;3.40;;;0.50;;
36321;SDS011;23564;48.290;11.460;2023-04-24T07:21:47;1.38;;;0.40;;
36321;SDS011;23564;48.290;11.460;2023-04-24T07:24:13;3.50;;;0.40;;
36321;SDS011;23564;48.290;11.460;2023-04-24T07:26:38;0.50;;;0.40;;
36321;SDS011;23564;48.290;11.460;2023-04-24T07:29:05;0.95;;;0.52;;
36321;SDS011;23564;48.290;11.460;2023-04-24T07:31:30;0.73;;;0.32;;
36321;SDS011;23564;48.290;11.460;2023-04-24T07:33:56;0.70;;;0.47;;
36321;SDS011;23564;48.290;11.460;2023-04-24T07:36:23;5.07;;;0.60;;
36321;SDS011;23564;48.290;11.460;2023-04-24T07:38:50;0.30;;;0.30;;
36321;SDS011;23564;48.290;11.460;2023-04-24T07:41:16;0.65;;;0.40;;
36321;SDS011;23564;48.290;11.460;2023-04-24T07:43:42;3.33;;;0.40;;
36321;SDS011;23564;48.290;11.460;2023-04-24T07:46:10;0.68;;;0.43;;
36321;SDS011;23564;48.290;11.460;2023-04-24T07:48:35;0.63;;;0.40;;
36321;SDS011;23564;48.290;11.460;2023-04-24T07:51:01;0.93;;;0.40;;
36321;SDS011;23564;48.290;11.460;2023-04-24T07:53:27;0.52;;;0.40;;
36321;SDS011;23564;48.290;11.460;2023-04-24T07:55:53;0.30;;;0.30;;
36321;SDS011;23564;48.290;11.460;2023-04-24T07:58:20;0.85;;;0.55;;
36321;SDS011;23564;48.290;11.460;2023-04-24T08:00:46;0.45;;;0.30;;
36321;SDS011;23564;48.290;11.460;2023-04-24T08:03:11;3.17;;;0.50;;
36321;SDS011;23564;48.290;11.460;2023-04-24T08:05:38;5.43;;;1.55;;
36321;SDS011;23564;48.290;11.460;2023-04-24T08:08:03;1.15;;;0.45;;
36321;SDS011;23564;48.290;11.460;2023-04-24T08:10:29;1.65;;;0.57;;
36321;SDS011;23564;48.290;11.460;2023-04-24T08:12:55;0.80;;;0.22;;
36321;SDS011;23564;48.290;11.460;2023-04-24T08:15:21;1.58;;;0.50;;
36321;SDS011;23564;48.290;11.460;2023-04-24T08:17:46;3.30;;;0.50;;
36321;SDS011;23564;48.290;11.460;2023-04-24T08:20:12;0.47;;;0.47;;
36321;SDS011;23564;48.290;11.460;2023-04-24T08:22:41;0.88;;;0.30;;
36321;SDS011;23564;48.290;11.460;2023-04-24T08:25:08;1.55;;;0.50;;
36321;SDS011;23564;48.290;11.460;2023-04-24T08:27:34;3.97;;;0.75;;
36321;SDS011;23564;48.290;11.460;2023-04-24T08:30:01;3.25;;;0.40;;
36321;SDS011;23564;48.290;11.460;2023-04-24T08:32:27;0.50;;;0.47;;
36321;SDS011;23564;48.290;11.460;2023-04-24T08:34:54;0.90;;;0.40;;
36321;SDS011;23564;48.290;11.460;2023-04-24T08:37:23;1.95;;;0.50;;
36321;SDS011;23564;48.290;11.460;2023-04-24T08:39:49;2.97;;;0.63;;
36321;SDS011;23564;48.290;11.460;2023-04-24T08:42:15;1.70;;;0.80;;
36321;SDS011;23564;48.290;11.460;2023-04-24T08:44:42;2.00;;;0.60;;
36321;SDS011;23564;48.290;11.460;2023-04-24T08:47:09;1.92;;;0.70;;
36321;SDS011;23564;48.290;11.460;2023-04-24T08:49:36;2.35;;;0.70;;
36321;SDS011;23564;48.290;11.460;2023-04-24T08:52:02;1.55;;;0.75;;
36321;SDS011;23564;48.290;11.460;2023-04-24T08:54:29;1.67;;;0.80;;
36321;SDS011;23564;48.290;11.460;2023-04-24T08:56:58;0.80;;;0.70;;
36321;SDS011;23564;48.290;11.460;2023-04-24T08:59:26;1.27;;;0.70;;
36321;SDS011;23564;48.290;11.460;2023-04-24T09:01:52;1.90;;;0.70;;
36321;SDS011;23564;48.290;11.460;2023-04-24T09:04:19;2.38;;;1.00;;
36321;SDS011;23564;48.290;11.460;2023-04-24T09:06:47;3.28;;;0.82;;
36321;SDS011;23564;48.290;11.460;2023-04-24T09:09:13;4.18;;;1.13;;
36321;SDS011;23564;48.290;11.460;2023-04-24T09:11:41;1.65;;;0.80;;
36321;SDS011;23564;48.290;11.460;2023-04-24T09:14:07;1.75;;;0.75;;
36321;SDS011;23564;48.290;11.460;2023-04-24T09:16:34;4.20;;;1.13;;
36321;SDS011;23564;48.290;11.460;2023-04-24T09:19:00;2.38;;;0.85;;
36321;SDS011;23564;48.290;11.460;2023-04-24T09:21:30;1.35;;;0.70;;
36321;SDS011;23564;48.290;11.460;2023-04-24T09:24:02;2.90;;;0.90;;
36321;SDS011;23564;48.290;11.460;2023-04-24T09:26:34;2.38;;;0.98;;
36321;SDS011;23564;48.290;11.460;2023-04-24T09:29:00;1.42;;;0.93;;
36321;SDS011;23564;48.290;11.460;2023-04-24T09:31:27;0.95;;;0.70;;
36321;SDS011;23564;48.290;11.460;2023-04-24T09:34:01;8.20;;;1.17;;
36321;SDS011;23564;48.290;11.460;2023-04-24T09:36:33;5.35;;;1.10;;
36321;SDS011;23564;48.290;11.460;2023-04-24T09:39:02;2.10;;;1.05;;
36321;SDS011;23564;48.290;11.460;2023-04-24T09:41:31;1.30;;;0.80;;
36321;SDS011;23564;48.290;11.460;2023-04-24T09:43:58;2.13;;;0.90;;
36321;SDS011;23564;48.290;11.460;2023-04-24T09:46:37;4.47;;;1.48;;
36321;SDS011;23564;48.290;11.460;2023-04-24T09:49:07;2.83;;;1.10;;
36321;SDS011;23564;48.290;11.460;2023-04-24T09:51:35;1.55;;;0.85;;
36321;SDS011;23564;48.290;11.460;2023-04-24T09:54:03;5.78;;;1.08;;
36321;SDS011;23564;48.290;11.460;2023-04-24T09:56:32;4.00;;;1.50;;
36321;SDS011;23564;48.290;11.460;2023-04-24T09:59:05;2.22;;;1.08;;
36321;SDS011;23564;48.290;11.460;2023-04-24T10:01:32;1.20;;;1.00;;
36321;SDS011;23564;48.290;11.460;2023-04-24T10:03:58;1.50;;;1.13;;
36321;SDS011;23564;48.290;11.460;2023-04-24T10:06:32;2.88;;;1.30;;
36321;SDS011;23564;48.290;11.460;2023-04-24T10:08:58;2.95;;;1.30;;
36321;SDS011;23564;48.290;11.460;2023-04-24T10:11:28;4.60;;;1.35;;
36321;SDS011;23564;48.290;11.460;2023-04-24T10:13:54;5.57;;;1.27;;
36321;SDS011;23564;48.290;11.460;2023-04-24T10:16:21;1.90;;;1.15;;
36321;SDS011;23564;48.290;11.460;2023-04-24T10:18:47;2.95;;;1.50;;
36321;SDS011;23564;48.290;11.460;2023-04-24T10:21:14;4.38;;;0.98;;
36321;SDS011;23564;48.290;11.460;2023-04-24T10:23:41;7.85;;;1.27;;
36321;SDS011;23564;48.290;11.460;2023-04-24T10:26:10;2.38;;;1.20;;
36321;SDS011;23564;48.290;11.460;2023-04-24T10:28:42;2.65;;;1.27;;
36321;SDS011;23564;48.290;11.460;2023-04-24T10:31:10;1.13;;;1.00;;
36321;SDS011;23564;48.290;11.460;2023-04-24T10:33:37;4.70;;;1.38;;
36321;SDS011;23564;48.290;11.460;2023-04-24T10:36:06;1.80;;;0.95;;
36321;SDS011;23564;48.290;11.460;2023-04-24T10:38:33;1.10;;;1.00;;
36321;SDS011;23564;48.290;11.460;2023-04-24T10:41:07;3.15;;;1.20;;
36321;SDS011;23564;48.290;11.460;2023-04-24T10:43:34;2.67;;;1.10;;
36321;SDS011;23564;48.290;11.460;2023-04-24T10:46:06;3.45;;;1.23;;
36321;SDS011;23564;48.290;11.460;2023-04-24T10:50:58;2.33;;;1.00;;
36321;SDS011;23564;48.290;11.460;2023-04-24T10:53:27;6.85;;;0.50;;
36321;SDS011;23564;48.290;11.460;2023-04-24T10:56:04;2.88;;;0.50;;
36321;SDS011;23564;48.290;11.460;2023-04-24T10:58:36;0.95;;;0.60;;
36321;SDS011;23564;48.290;11.460;2023-04-24T11:01:22;1.40;;;1.00;;
36321;SDS011;23564;48.290;11.460;2023-04-24T11:03:54;1.70;;;0.82;;
36321;SDS011;23564;48.290;11.460;2023-04-24T11:06:37;3.92;;;0.95;;
36321;SDS011;23564;48.290;11.460;2023-04-24T11:09:03;1.23;;;0.70;;
36321;SDS011;23564;48.290;11.460;2023-04-24T11:11:34;1.80;;;0.60;;
36321;SDS011;23564;48.290;11.460;2023-04-24T11:14:01;1.98;;;0.88;;
36321;SDS011;23564;48.290;11.460;2023-04-24T11:21:43;3.45;;;0.82;;
36321;SDS011;23564;48.290;11.460;2023-04-24T11:26:58;2.38;;;0.85;;
36321;SDS011;23564;48.290;11.460;2023-04-24T11:34:56;2.50;;;0.95;;
36321;SDS011;23564;48.290;11.460;2023-04-24T11:37:39;2.45;;;0.70;;
36321;SDS011;23564;48.290;11.460;2023-04-24T11:40:07;4.13;;;1.02;;
36321;SDS011;23564;48.290;11.460;2023-04-24T11:42:35;2.08;;;0.98;;
36321;SDS011;23564;48.290;11.460;2023-04-24T11:45:09;3.03;;;1.08;;
36321;SDS011;23564;48.290;11.460;2023-04-24T11:47:36;1.63;;;1.15;;
36321;SDS011;23564;48.290;11.460;2023-04-24T11:50:02;1.92;;;0.90;;
36321;SDS011;23564;48.290;11.460;2023-04-24T11:52:29;4.30;;;1.30;;
36321;SDS011;23564;48.290;11.460;2023-04-24T11:54:55;2.30;;;1.10;;
36321;SDS011;23564;48.290;11.460;2023-04-24T11:57:21;1.83;;;1.25;;
36321;SDS011;23564;48.290;11.460;2023-04-24T11:59:49;1.83;;;1.23;;
36321;SDS011;23564;48.290;11.460;2023-04-24T12:04:50;1.85;;;1.25;;
36321;SDS011;23564;48.290;11.460;2023-04-24T12:07:16;3.35;;;1.10;;
36321;SDS011;23564;48.290;11.460;2023-04-24T12:09:42;1.35;;;0.98;;
36321;SDS011;23564;48.290;11.460;2023-04-24T12:12:09;3.50;;;1.00;;
36321;SDS011;23564;48.290;11.460;2023-04-24T12:14:47;4.80;;;1.20;;
36321;SDS011;23564;48.290;11.460;2023-04-24T12:17:15;3.88;;;1.02;;
36321;SDS011;23564;48.290;11.460;2023-04-24T12:19:45;2.08;;;1.13;;
36321;SDS011;23564;48.290;11.460;2023-04-24T12:22:11;1.95;;;0.90;;
36321;SDS011;23564;48.290;11.460;2023-04-24T12:24:55;3.28;;;1.05;;
36321;SDS011;23564;48.290;11.460;2023-04-24T12:27:21;2.85;;;0.95;;
36321;SDS011;23564;48.290;11.460;2023-04-24T12:29:51;4.05;;;1.02;;
36321;SDS011;23564;48.290;11.460;2023-04-24T12:32:18;2.38;;;1.00;;
36321;SDS011;23564;48.290;11.460;2023-04-24T12:34:44;1.30;;;0.90;;
36321;SDS011;23564;48.290;11.460;2023-04-24T12:37:12;5.43;;;1.40;;
36321;SDS011;23564;48.290;11.460;2023-04-24T12:39:38;2.55;;;1.00;;
36321;SDS011;23564;48.290;11.460;2023-04-24T12:42:04;2.25;;;1.10;;
36321;SDS011;23564;48.290;11.460;2023-04-24T12:44:30;1.05;;;0.80;;
36321;SDS011;23564;48.290;11.460;2023-04-24T12:46:56;1.95;;;0.93;;
36321;SDS011;23564;48.290;11.460;2023-04-24T12:49:22;0.63;;;0.60;;
36321;SDS011;23564;48.290;11.460;2023-04-24T12:51:48;6.68;;;1.00;;
36321;SDS011;23564;48.290;11.460;2023-04-24T12:54:14;2.58;;;0.90;;
36321;SDS011;23564;48.290;11.460;2023-04-24T12:56:39;6.82;;;1.30;;
36321;SDS011;23564;48.290;11.460;2023-04-24T12:59:05;7.18;;;1.13;;
36321;SDS011;23564;48.290;11.460;2023-04-24T13:01:30;2.40;;;1.15;;
36321;SDS011;23564;48.290;11.460;2023-04-24T13:03:56;2.28;;;1.20;;
36321;SDS011;23564;48.290;11.460;2023-04-24T13:06:21;3.80;;;1.20;;
36321;SDS011;23564;48.290;11.460;2023-04-24T13:08:47;5.95;;;1.45;;
36321;SDS011;23564;48.290;11.460;2023-04-24T13:11:13;4.80;;;1.25;;
36321;SDS011;23564;48.290;11.460;2023-04-24T13:13:39;2.22;;;1.17;;
36321;SDS011;23564;48.290;11.460;2023-04-24T13:16:05;1.40;;;0.98;;
36321;SDS011;23564;48.290;11.460;2023-04-24T13:18:30;2.10;;;1.10;;
36321;SDS011;23564;48.290;11.460;2023-04-24T13:20:56;2.88;;;1.13;;
36321;SDS011;23564;48.290;11.460;2023-04-24T13:23:22;6.05;;;0.90;;
36321;SDS011;23564;48.290;11.460;2023-04-24T13:25:47;1.15;;;0.95;;
36321;SDS011;23564;48.290;11.460;2023-04-24T13:28:13;2.22;;;1.02;;
36321;SDS011;23564;48.290;11.460;2023-04-24T13:30:39;3.67;;;0.90;;
36321;SDS011;23564;48.290;11.460;2023-04-24T13:33:05;3.22;;;1.40;;
36321;SDS011;23564;48.290;11.460;2023-04-24T13:35:30;8.15;;;1.42;;
36321;SDS011;23564;48.290;11.460;2023-04-24T13:37:57;2.67;;;1.15;;
36321;SDS011;23564;48.290;11.460;2023-04-24T13:40:22;2.35;;;0.93;;
36321;SDS011;23564;48.290;11.460;2023-04-24T13:42:48;3.22;;;1.25;;
36321;SDS011;23564;48.290;11.460;2023-04-24T13:45:14;3.25;;;1.10;;
36321;SDS011;23564;48.290;11.460;2023-04-24T13:47:40;4.38;;;1.00;;
36321;SDS011;23564;48.290;11.460;2023-04-24T13:50:06;5.00;;;1.33;;
36321;SDS011;23564;48.290;11.460;2023-04-24T13:52:33;2.42;;;1.20;;
36321;SDS011;23564;48.290;11.460;2023-04-24T13:54:59;2.83;;;0.90;;
36321;SDS011;23564;48.290;11.460;2023-04-24T13:57:24;2.63;;;1.15;;
36321;SDS011;23564;48.290;11.460;2023-04-24T13:59:50;2.75;;;1.30;;
36321;SDS011;23564;48.290;11.460;2023-04-24T14:02:16;4.00;;;1.25;;
36321;SDS011;23564;48.290;11.460;2023-04-24T14:04:42;2.30;;;1.10;;
36321;SDS011;23564;48.290;11.460;2023-04-24T14:07:07;4.45;;;1.30;;
36321;SDS011;23564;48.290;11.460;2023-04-24T14:09:33;3.00;;;0.95;;
36321;SDS011;23564;48.290;11.460;2023-04-24T14:11:59;2.25;;;0.90;;
36321;SDS011;23564;48.290;11.460;2023-04-24T14:14:26;4.10;;;1.10;;
36321;SDS011;23564;48.290;11.460;2023-04-24T14:16:52;3.40;;;1.13;;
36321;SDS011;23564;48.290;11.460;2023-04-24T14:19:17;3.47;;;1.20;;
36321;SDS011;23564;48.290;11.460;2023-04-24T14:21:43;1.73;;;1.08;;
36321;SDS011;23564;48.290;11.460;2023-04-24T14:24:08;3.60;;;1.17;;
36321;SDS011;23564;48.290;11.460;2023-04-24T14:26:34;3.45;;;1.08;;
36321;SDS011;23564;48.290;11.460;2023-04-24T14:29:00;3.33;;;0.90;;
36321;SDS011;23564;48.290;11.460;2023-04-24T14:31:25;3.28;;;1.00;;
36321;SDS011;23564;48.290;11.460;2023-04-24T14:33:51;3.67;;;0.85;;
36321;SDS011;23564;48.290;11.460;2023-04-24T14:36:17;3.28;;;1.00;;
36321;SDS011;23564;48.290;11.460;2023-04-24T14:38:42;6.80;;;1.10;;
36321;SDS011;23564;48.290;11.460;2023-04-24T14:41:08;4.75;;;1.13;;
36321;SDS011;23564;48.290;11.460;2023-04-24T14:43:35;5.57;;;1.40;;
36321;SDS011;23564;48.290;11.460;2023-04-24T14:46:01;2.13;;;1.02;;
36321;SDS011;23564;48.290;11.460;2023-04-24T14:48:27;2.40;;;1.13;;